Kodiak Airport
PADQ : rendu visible

Aérodrome :











RETROUVEZ-NOUS SUR...

 
LOGIN :

S'inscrire | Disclaimer

   EN    FR    IT 

 









Légende :    VFR   VFR Marginal   IFR   IFR Intensif   IFR Très Intensif
Visi : 
Plafond : 
>= 8 km
>= 3000ft
5 à 8 km
1000 à 3000 ft
1500m à 5 km
500 à 1000 ft
800 à 1500m
200 à 500 ft
< 800m
< 200 ft
Symboles :   Orages  Brouillard  Fortes neiges  Fortes précipitations  Vent > 20 kt






- Altitude de l'aérodrome : 78 ft
- Code IATA : ADQ


PADQ - Kodiak

DERNIER METAR :
  • 081853Z 29018G25KT 10SM CLR 01/M06 A2987 RMK AO2 PK WND 29028/1833 SLP116 T00111061 $

METARs EXPIRÉS :
  • 081753Z 29018G26KT 10SM CLR 01/M06 A2984 RMK AO2 PK WND 28029/1713 SLP105 T00111056 10011 21017 53041 $
  • 081653Z 28023G31KT 7SM CLR 01/M06 A2978 RMK AO2 PK WND 28033/1640 SLP084 T00061061 $

TAF PADQ
Valide du 08 à 18h jusqu'au 09 à 18h UTC


081742Z 0818/0918 28021G33KT P6SM FEW040
FM090200 27013G21KT P6SM FEW180
FM090700 28009KT P6SM SCT035 SCT130



MET'MAP, la Météo Aéronautique d'un coup d'oeil ! - Copyright ORBIFLY Décembre 2007 - Disclaimer

ORBIFLY MET'MAP TEAM :

Programmation & Développement : Alexandra Zaïnal
Sur une idée originale de : Baudouin d'Aumeries
Assistance à la programmation : Marc-Olivier Méhu
Soutien technique & logistique : Manuel Goepfert

Contact : metmap@orbifly.com




SOURCES & CREDITS :

   NOAA       Earth
Advisory